sensor_id;sensor_type;location;lat;lon;timestamp;temperature;humidity
37086;DHT22;23001;45.952;12.676;2022-11-20T00:00:36;9.80;99.90
37086;DHT22;23001;45.952;12.676;2022-11-20T00:03:02;9.90;99.90
37086;DHT22;23001;45.952;12.676;2022-11-20T00:05:28;9.80;99.90
37086;DHT22;23001;45.952;12.676;2022-11-20T00:07:53;9.70;99.90
37086;DHT22;23001;45.952;12.676;2022-11-20T00:10:19;9.70;99.90
37086;DHT22;23001;45.952;12.676;2022-11-20T00:12:45;9.70;99.90
37086;DHT22;23001;45.952;12.676;2022-11-20T00:15:10;9.70;99.90
37086;DHT22;23001;45.952;12.676;2022-11-20T00:17:36;9.70;99.90
37086;DHT22;23001;45.952;12.676;2022-11-20T00:20:02;9.70;99.90
37086;DHT22;23001;45.952;12.676;2022-11-20T00:22:28;9.70;99.90
37086;DHT22;23001;45.952;12.676;2022-11-20T00:24:53;9.60;99.90
37086;DHT22;23001;45.952;12.676;2022-11-20T00:27:19;9.60;99.90
37086;DHT22;23001;45.952;12.676;2022-11-20T00:29:45;9.70;99.90
37086;DHT22;23001;45.952;12.676;2022-11-20T00:32:10;9.70;99.90
37086;DHT22;23001;45.952;12.676;2022-11-20T00:34:36;9.60;99.90
37086;DHT22;23001;45.952;12.676;2022-11-20T00:37:02;9.70;99.90
37086;DHT22;23001;45.952;12.676;2022-11-20T00:39:27;9.70;99.90
37086;DHT22;23001;45.952;12.676;2022-11-20T00:41:53;9.70;99.90
37086;DHT22;23001;45.952;12.676;2022-11-20T00:44:19;9.70;99.90
37086;DHT22;23001;45.952;12.676;2022-11-20T00:46:44;9.60;99.90
37086;DHT22;23001;45.952;12.676;2022-11-20T00:49:10;9.50;99.90
37086;DHT22;23001;45.952;12.676;2022-11-20T00:51:36;9.50;99.90
37086;DHT22;23001;45.952;12.676;2022-11-20T00:54:01;9.50;99.90
37086;DHT22;23001;45.952;12.676;2022-11-20T00:56:27;9.50;99.90
37086;DHT22;23001;45.952;12.676;2022-11-20T00:58:54;9.60;99.90
37086;DHT22;23001;45.952;12.676;2022-11-20T01:01:22;9.60;99.90
37086;DHT22;23001;45.952;12.676;2022-11-20T01:03:51;9.50;99.90
37086;DHT22;23001;45.952;12.676;2022-11-20T01:06:19;9.50;99.90
37086;DHT22;23001;45.952;12.676;2022-11-20T01:08:45;9.40;99.90
37086;DHT22;23001;45.952;12.676;2022-11-20T01:11:14;9.50;99.90
37086;DHT22;23001;45.952;12.676;2022-11-20T01:13:40;9.60;99.90
37086;DHT22;23001;45.952;12.676;2022-11-20T01:16:12;9.50;99.90
37086;DHT22;23001;45.952;12.676;2022-11-20T01:18:40;9.50;99.90
37086;DHT22;23001;45.952;12.676;2022-11-20T01:21:12;9.50;99.90
37086;DHT22;23001;45.952;12.676;2022-11-20T01:23:39;9.50;99.90
37086;DHT22;23001;45.952;12.676;2022-11-20T01:26:12;9.50;99.90
37086;DHT22;23001;45.952;12.676;2022-11-20T01:28:38;9.50;99.90
37086;DHT22;23001;45.952;12.676;2022-11-20T01:31:32;9.50;99.90
37086;DHT22;23001;45.952;12.676;2022-11-20T01:34:04;9.60;99.90
37086;DHT22;23001;45.952;12.676;2022-11-20T01:36:32;9.60;99.90
37086;DHT22;23001;45.952;12.676;2022-11-20T01:39:04;9.50;99.90
37086;DHT22;23001;45.952;12.676;2022-11-20T01:41:32;9.50;99.90
37086;DHT22;23001;45.952;12.676;2022-11-20T01:44:20;9.50;99.90
37086;DHT22;23001;45.952;12.676;2022-11-20T01:46:55;9.40;99.90
37086;DHT22;23001;45.952;12.676;2022-11-20T01:49:34;9.40;99.90
37086;DHT22;23001;45.952;12.676;2022-11-20T01:52:11;9.30;99.90
37086;DHT22;23001;45.952;12.676;2022-11-20T01:54:51;9.30;99.90
37086;DHT22;23001;45.952;12.676;2022-11-20T01:57:19;9.30;99.90
37086;DHT22;23001;45.952;12.676;2022-11-20T01:59:55;9.40;99.90
37086;DHT22;23001;45.952;12.676;2022-11-20T02:02:23;9.50;99.90
37086;DHT22;23001;45.952;12.676;2022-11-20T02:04:51;9.50;99.90
37086;DHT22;23001;45.952;12.676;2022-11-20T02:07:17;9.50;99.90
37086;DHT22;23001;45.952;12.676;2022-11-20T02:09:43;9.50;99.90
37086;DHT22;23001;45.952;12.676;2022-11-20T02:12:09;9.50;99.90
37086;DHT22;23001;45.952;12.676;2022-11-20T02:14:55;9.50;99.90
37086;DHT22;23001;45.952;12.676;2022-11-20T02:17:22;9.50;99.90
37086;DHT22;23001;45.952;12.676;2022-11-20T02:19:48;9.40;99.90
37086;DHT22;23001;45.952;12.676;2022-11-20T02:22:29;9.50;99.90
37086;DHT22;23001;45.952;12.676;2022-11-20T02:24:58;9.50;99.90
37086;DHT22;23001;45.952;12.676;2022-11-20T02:27:26;9.40;99.90
37086;DHT22;23001;45.952;12.676;2022-11-20T02:29:54;9.40;99.90
37086;DHT22;23001;45.952;12.676;2022-11-20T02:32:29;9.40;99.90
37086;DHT22;23001;45.952;12.676;2022-11-20T02:34:55;9.50;99.90
37086;DHT22;23001;45.952;12.676;2022-11-20T02:37:22;9.50;99.90
37086;DHT22;23001;45.952;12.676;2022-11-20T02:39:50;9.40;99.90
37086;DHT22;23001;45.952;12.676;2022-11-20T02:42:17;9.40;99.90
37086;DHT22;23001;45.952;12.676;2022-11-20T02:44:42;9.40;99.90
37086;DHT22;23001;45.952;12.676;2022-11-20T02:47:08;9.40;99.90
37086;DHT22;23001;45.952;12.676;2022-11-20T02:49:34;9.40;99.90
37086;DHT22;23001;45.952;12.676;2022-11-20T02:52:00;9.40;99.90
37086;DHT22;23001;45.952;12.676;2022-11-20T02:54:26;9.40;99.90
37086;DHT22;23001;45.952;12.676;2022-11-20T02:56:52;9.40;99.90
37086;DHT22;23001;45.952;12.676;2022-11-20T02:59:18;9.30;99.90
37086;DHT22;23001;45.952;12.676;2022-11-20T03:01:44;9.30;99.90
37086;DHT22;23001;45.952;12.676;2022-11-20T03:04:09;9.30;99.90
37086;DHT22;23001;45.952;12.676;2022-11-20T03:06:35;9.30;99.90
37086;DHT22;23001;45.952;12.676;2022-11-20T03:09:01;9.30;99.90
37086;DHT22;23001;45.952;12.676;2022-11-20T03:11:27;9.20;99.90
37086;DHT22;23001;45.952;12.676;2022-11-20T03:13:53;9.30;99.90
37086;DHT22;23001;45.952;12.676;2022-11-20T03:16:21;9.30;99.90
37086;DHT22;23001;45.952;12.676;2022-11-20T03:18:47;9.30;99.90
37086;DHT22;23001;45.952;12.676;2022-11-20T03:21:14;9.30;99.90
37086;DHT22;23001;45.952;12.676;2022-11-20T03:23:40;9.20;99.90
37086;DHT22;23001;45.952;12.676;2022-11-20T03:26:19;9.20;99.90
37086;DHT22;23001;45.952;12.676;2022-11-20T03:29:04;9.30;99.90
37086;DHT22;23001;45.952;12.676;2022-11-20T03:31:37;9.30;99.90
37086;DHT22;23001;45.952;12.676;2022-11-20T03:34:06;9.30;99.90
37086;DHT22;23001;45.952;12.676;2022-11-20T03:36:32;9.30;99.90
37086;DHT22;23001;45.952;12.676;2022-11-20T03:38:58;9.20;99.90
37086;DHT22;23001;45.952;12.676;2022-11-20T03:41:29;9.20;99.90
37086;DHT22;23001;45.952;12.676;2022-11-20T03:43:57;9.20;99.90
37086;DHT22;23001;45.952;12.676;2022-11-20T03:46:24;9.10;99.90
37086;DHT22;23001;45.952;12.676;2022-11-20T03:48:49;9.10;99.90
37086;DHT22;23001;45.952;12.676;2022-11-20T03:51:23;9.10;99.90
37086;DHT22;23001;45.952;12.676;2022-11-20T03:53:51;9.10;99.90
37086;DHT22;23001;45.952;12.676;2022-11-20T03:56:19;9.10;99.90
37086;DHT22;23001;45.952;12.676;2022-11-20T03:58:45;9.20;99.90
37086;DHT22;23001;45.952;12.676;2022-11-20T04:01:17;9.10;99.90
37086;DHT22;23001;45.952;12.676;2022-11-20T04:03:43;9.20;99.90
37086;DHT22;23001;45.952;12.676;2022-11-20T04:06:11;9.10;99.90
37086;DHT22;23001;45.952;12.676;2022-11-20T04:08:37;9.10;99.90
37086;DHT22;23001;45.952;12.676;2022-11-20T04:13:35;9.10;99.90
37086;DHT22;23001;45.952;12.676;2022-11-20T04:16:01;9.10;99.90
37086;DHT22;23001;45.952;12.676;2022-11-20T04:18:27;9.10;99.90
37086;DHT22;23001;45.952;12.676;2022-11-20T04:20:52;9.10;99.90
37086;DHT22;23001;45.952;12.676;2022-11-20T04:23:18;9.00;99.90
37086;DHT22;23001;45.952;12.676;2022-11-20T04:25:44;9.00;99.90
37086;DHT22;23001;45.952;12.676;2022-11-20T04:28:09;9.00;99.90
37086;DHT22;23001;45.952;12.676;2022-11-20T04:30:35;9.10;99.90
37086;DHT22;23001;45.952;12.676;2022-11-20T04:33:01;9.10;99.90
37086;DHT22;23001;45.952;12.676;2022-11-20T04:35:26;9.10;99.90
37086;DHT22;23001;45.952;12.676;2022-11-20T04:37:52;9.10;99.90
37086;DHT22;23001;45.952;12.676;2022-11-20T04:40:18;9.00;99.90
37086;DHT22;23001;45.952;12.676;2022-11-20T04:42:43;9.10;99.90
37086;DHT22;23001;45.952;12.676;2022-11-20T04:45:09;9.10;99.90
37086;DHT22;23001;45.952;12.676;2022-11-20T04:47:35;9.10;99.90
37086;DHT22;23001;45.952;12.676;2022-11-20T04:50:00;9.10;99.90
37086;DHT22;23001;45.952;12.676;2022-11-20T04:52:26;8.90;99.90
37086;DHT22;23001;45.952;12.676;2022-11-20T04:54:52;9.00;99.90
37086;DHT22;23001;45.952;12.676;2022-11-20T04:57:19;9.00;99.90
37086;DHT22;23001;45.952;12.676;2022-11-20T04:59:44;9.00;99.90
37086;DHT22;23001;45.952;12.676;2022-11-20T05:02:10;9.00;99.90
37086;DHT22;23001;45.952;12.676;2022-11-20T05:04:36;9.00;99.90
37086;DHT22;23001;45.952;12.676;2022-11-20T05:07:02;9.00;99.90
37086;DHT22;23001;45.952;12.676;2022-11-20T05:09:29;9.00;99.90
37086;DHT22;23001;45.952;12.676;2022-11-20T05:11:55;9.00;99.90
37086;DHT22;23001;45.952;12.676;2022-11-20T05:14:20;8.90;99.90
37086;DHT22;23001;45.952;12.676;2022-11-20T05:16:46;8.90;99.90
37086;DHT22;23001;45.952;12.676;2022-11-20T05:19:12;8.90;99.90
37086;DHT22;23001;45.952;12.676;2022-11-20T05:21:37;8.90;99.90
37086;DHT22;23001;45.952;12.676;2022-11-20T05:24:03;8.90;99.90
37086;DHT22;23001;45.952;12.676;2022-11-20T05:26:29;8.80;99.90
37086;DHT22;23001;45.952;12.676;2022-11-20T05:28:55;8.80;99.90
37086;DHT22;23001;45.952;12.676;2022-11-20T05:31:22;8.80;99.90
37086;DHT22;23001;45.952;12.676;2022-11-20T05:33:48;8.80;99.90
37086;DHT22;23001;45.952;12.676;2022-11-20T05:36:15;8.70;99.90
37086;DHT22;23001;45.952;12.676;2022-11-20T05:38:41;8.60;99.90
37086;DHT22;23001;45.952;12.676;2022-11-20T05:41:10;8.60;99.90
37086;DHT22;23001;45.952;12.676;2022-11-20T05:43:37;8.50;99.90
37086;DHT22;23001;45.952;12.676;2022-11-20T05:46:03;8.50;99.90
37086;DHT22;23001;45.952;12.676;2022-11-20T05:48:29;8.50;99.90
37086;DHT22;23001;45.952;12.676;2022-11-20T05:50:57;8.50;99.90
37086;DHT22;23001;45.952;12.676;2022-11-20T05:53:24;8.50;99.90
37086;DHT22;23001;45.952;12.676;2022-11-20T05:56:07;8.50;99.90
37086;DHT22;23001;45.952;12.676;2022-11-20T05:58:35;8.50;99.90
37086;DHT22;23001;45.952;12.676;2022-11-20T06:01:12;8.40;99.90
37086;DHT22;23001;45.952;12.676;2022-11-20T06:03:39;8.30;99.90
37086;DHT22;23001;45.952;12.676;2022-11-20T06:06:06;8.30;99.90
37086;DHT22;23001;45.952;12.676;2022-11-20T06:08:32;8.30;99.90
37086;DHT22;23001;45.952;12.676;2022-11-20T06:10:58;8.30;99.90
37086;DHT22;23001;45.952;12.676;2022-11-20T06:13:24;8.20;99.90
37086;DHT22;23001;45.952;12.676;2022-11-20T06:15:51;8.20;99.90
37086;DHT22;23001;45.952;12.676;2022-11-20T06:18:18;8.20;99.90
37086;DHT22;23001;45.952;12.676;2022-11-20T06:20:44;8.10;99.90
37086;DHT22;23001;45.952;12.676;2022-11-20T06:23:10;8.10;99.90
37086;DHT22;23001;45.952;12.676;2022-11-20T06:25:40;8.10;99.90
37086;DHT22;23001;45.952;12.676;2022-11-20T06:28:06;8.10;99.90
37086;DHT22;23001;45.952;12.676;2022-11-20T06:30:33;8.20;99.90
37086;DHT22;23001;45.952;12.676;2022-11-20T06:32:58;8.10;99.90
37086;DHT22;23001;45.952;12.676;2022-11-20T06:35:24;8.10;99.90
37086;DHT22;23001;45.952;12.676;2022-11-20T06:37:50;8.10;99.90
37086;DHT22;23001;45.952;12.676;2022-11-20T06:40:15;8.20;99.90
37086;DHT22;23001;45.952;12.676;2022-11-20T06:42:41;8.20;99.90
37086;DHT22;23001;45.952;12.676;2022-11-20T06:45:07;8.30;99.90
37086;DHT22;23001;45.952;12.676;2022-11-20T06:47:33;8.20;99.90
37086;DHT22;23001;45.952;12.676;2022-11-20T06:49:59;8.30;99.90
37086;DHT22;23001;45.952;12.676;2022-11-20T06:52:25;8.20;99.90
37086;DHT22;23001;45.952;12.676;2022-11-20T06:54:50;8.20;99.90
37086;DHT22;23001;45.952;12.676;2022-11-20T06:57:16;8.20;99.90
37086;DHT22;23001;45.952;12.676;2022-11-20T06:59:42;8.30;99.90
37086;DHT22;23001;45.952;12.676;2022-11-20T07:02:11;8.30;99.90
37086;DHT22;23001;45.952;12.676;2022-11-20T07:04:37;8.30;99.90
37086;DHT22;23001;45.952;12.676;2022-11-20T07:07:12;8.40;99.90
37086;DHT22;23001;45.952;12.676;2022-11-20T07:09:44;8.40;99.90
37086;DHT22;23001;45.952;12.676;2022-11-20T07:12:10;8.40;99.90
37086;DHT22;23001;45.952;12.676;2022-11-20T07:14:35;8.50;99.90
37086;DHT22;23001;45.952;12.676;2022-11-20T07:17:01;8.50;99.90
37086;DHT22;23001;45.952;12.676;2022-11-20T07:19:30;8.60;99.90
37086;DHT22;23001;45.952;12.676;2022-11-20T07:22:04;8.60;99.90
37086;DHT22;23001;45.952;12.676;2022-11-20T07:24:29;8.70;99.90
37086;DHT22;23001;45.952;12.676;2022-11-20T07:26:55;8.70;99.90
37086;DHT22;23001;45.952;12.676;2022-11-20T07:29:26;8.60;99.90
37086;DHT22;23001;45.952;12.676;2022-11-20T07:34:43;8.50;99.90
37086;DHT22;23001;45.952;12.676;2022-11-20T07:37:09;8.50;99.90
37086;DHT22;23001;45.952;12.676;2022-11-20T07:39:35;8.50;99.90
37086;DHT22;23001;45.952;12.676;2022-11-20T07:42:03;8.50;99.90
37086;DHT22;23001;45.952;12.676;2022-11-20T07:44:47;8.50;99.90
37086;DHT22;23001;45.952;12.676;2022-11-20T07:47:16;8.50;99.90
37086;DHT22;23001;45.952;12.676;2022-11-20T07:49:47;8.60;99.90
37086;DHT22;23001;45.952;12.676;2022-11-20T07:52:13;8.60;99.90
37086;DHT22;23001;45.952;12.676;2022-11-20T07:54:39;8.60;99.90
37086;DHT22;23001;45.952;12.676;2022-11-20T07:57:32;8.70;99.90
37086;DHT22;23001;45.952;12.676;2022-11-20T08:00:14;8.60;99.90
37086;DHT22;23001;45.952;12.676;2022-11-20T08:02:42;8.70;99.90
37086;DHT22;23001;45.952;12.676;2022-11-20T08:05:35;8.70;99.90
37086;DHT22;23001;45.952;12.676;2022-11-20T08:08:31;8.60;99.90
37086;DHT22;23001;45.952;12.676;2022-11-20T08:11:20;8.70;99.90
37086;DHT22;23001;45.952;12.676;2022-11-20T08:37:47;8.80;99.90
37086;DHT22;23001;45.952;12.676;2022-11-20T08:40:13;8.90;99.90
37086;DHT22;23001;45.952;12.676;2022-11-20T08:43:06;8.90;99.90
37086;DHT22;23001;45.952;12.676;2022-11-20T08:45:52;8.90;99.90
37086;DHT22;23001;45.952;12.676;2022-11-20T08:48:18;9.00;99.90
37086;DHT22;23001;45.952;12.676;2022-11-20T08:53:51;9.10;99.90
37086;DHT22;23001;45.952;12.676;2022-11-20T08:56:17;9.30;99.90
37086;DHT22;23001;45.952;12.676;2022-11-20T08:58:45;9.30;99.90
37086;DHT22;23001;45.952;12.676;2022-11-20T09:03:57;9.40;99.90
37086;DHT22;23001;45.952;12.676;2022-11-20T09:06:22;9.30;99.90
37086;DHT22;23001;45.952;12.676;2022-11-20T09:08:52;9.40;99.90
37086;DHT22;23001;45.952;12.676;2022-11-20T09:18:10;9.50;99.90
37086;DHT22;23001;45.952;12.676;2022-11-20T09:20:36;9.60;99.90
37086;DHT22;23001;45.952;12.676;2022-11-20T09:25:38;9.80;99.90
37086;DHT22;23001;45.952;12.676;2022-11-20T09:28:04;9.80;99.90
37086;DHT22;23001;45.952;12.676;2022-11-20T09:30:41;9.90;99.90
37086;DHT22;23001;45.952;12.676;2022-11-20T09:33:06;10.00;99.90
37086;DHT22;23001;45.952;12.676;2022-11-20T09:35:33;10.10;99.90
37086;DHT22;23001;45.952;12.676;2022-11-20T09:56:06;10.60;99.90
37086;DHT22;23001;45.952;12.676;2022-11-20T10:12:07;10.80;99.90
37086;DHT22;23001;45.952;12.676;2022-11-20T10:17:53;10.90;99.90
37086;DHT22;23001;45.952;12.676;2022-11-20T10:33:22;11.00;99.90
37086;DHT22;23001;45.952;12.676;2022-11-20T10:41:52;11.30;99.90
37086;DHT22;23001;45.952;12.676;2022-11-20T10:44:26;11.40;99.90
37086;DHT22;23001;45.952;12.676;2022-11-20T10:47:16;11.40;99.90
37086;DHT22;23001;45.952;12.676;2022-11-20T10:49:46;11.30;99.90
37086;DHT22;23001;45.952;12.676;2022-11-20T10:55:31;11.40;99.90
37086;DHT22;23001;45.952;12.676;2022-11-20T10:58:22;11.40;99.90
37086;DHT22;23001;45.952;12.676;2022-11-20T11:00:51;11.40;99.90
37086;DHT22;23001;45.952;12.676;2022-11-20T11:03:26;11.40;99.90
37086;DHT22;23001;45.952;12.676;2022-11-20T11:06:36;11.50;99.90
37086;DHT22;23001;45.952;12.676;2022-11-20T11:12:28;11.60;99.90
37086;DHT22;23001;45.952;12.676;2022-11-20T11:14:56;11.60;99.90
37086;DHT22;23001;45.952;12.676;2022-11-20T11:17:49;11.60;99.90
37086;DHT22;23001;45.952;12.676;2022-11-20T11:20:21;11.60;99.90
37086;DHT22;23001;45.952;12.676;2022-11-20T11:22:57;11.70;99.90
37086;DHT22;23001;45.952;12.676;2022-11-20T11:25:29;11.60;99.90
37086;DHT22;23001;45.952;12.676;2022-11-20T11:28:19;11.70;99.90
37086;DHT22;23001;45.952;12.676;2022-11-20T11:31:04;11.70;99.90
37086;DHT22;23001;45.952;12.676;2022-11-20T11:33:36;11.80;99.90
37086;DHT22;23001;45.952;12.676;2022-11-20T11:39:18;11.80;99.90
37086;DHT22;23001;45.952;12.676;2022-11-20T11:41:52;11.80;99.90
37086;DHT22;23001;45.952;12.676;2022-11-20T11:44:24;11.70;99.90
37086;DHT22;23001;45.952;12.676;2022-11-20T11:51:00;11.80;99.90
37086;DHT22;23001;45.952;12.676;2022-11-20T11:53:40;11.80;99.90
37086;DHT22;23001;45.952;12.676;2022-11-20T11:56:11;11.90;99.90
37086;DHT22;23001;45.952;12.676;2022-11-20T11:58:49;11.90;99.90
37086;DHT22;23001;45.952;12.676;2022-11-20T12:05:02;11.90;99.90
37086;DHT22;23001;45.952;12.676;2022-11-20T12:16:54;11.90;99.90
37086;DHT22;23001;45.952;12.676;2022-11-20T12:19:23;11.90;99.90
37086;DHT22;23001;45.952;12.676;2022-11-20T12:25:11;11.90;99.90
37086;DHT22;23001;45.952;12.676;2022-11-20T12:27:54;11.90;99.90
37086;DHT22;23001;45.952;12.676;2022-11-20T12:30:27;12.00;99.90
37086;DHT22;23001;45.952;12.676;2022-11-20T12:33:41;12.00;99.90
37086;DHT22;23001;45.952;12.676;2022-11-20T12:36:32;12.10;99.90
37086;DHT22;23001;45.952;12.676;2022-11-20T12:39:16;12.10;99.90
37086;DHT22;23001;45.952;12.676;2022-11-20T12:45:28;12.20;99.90
37086;DHT22;23001;45.952;12.676;2022-11-20T12:51:12;12.20;99.90
37086;DHT22;23001;45.952;12.676;2022-11-20T12:54:01;12.10;99.90
37086;DHT22;23001;45.952;12.676;2022-11-20T13:02:44;12.10;99.90
37086;DHT22;23001;45.952;12.676;2022-11-20T13:08:34;12.10;99.90
37086;DHT22;23001;45.952;12.676;2022-11-20T13:14:04;12.10;99.90
37086;DHT22;23001;45.952;12.676;2022-11-20T13:19:05;12.10;99.90
37086;DHT22;23001;45.952;12.676;2022-11-20T13:21:39;12.10;99.90
37086;DHT22;23001;45.952;12.676;2022-11-20T13:24:26;12.10;99.90
37086;DHT22;23001;45.952;12.676;2022-11-20T13:29:45;12.10;99.90
37086;DHT22;23001;45.952;12.676;2022-11-20T13:32:17;12.10;99.90
37086;DHT22;23001;45.952;12.676;2022-11-20T13:35:30;12.00;99.90
37086;DHT22;23001;45.952;12.676;2022-11-20T13:41:38;12.00;99.90
37086;DHT22;23001;45.952;12.676;2022-11-20T13:46:45;11.90;99.90
37086;DHT22;23001;45.952;12.676;2022-11-20T13:49:41;11.90;99.90
37086;DHT22;23001;45.952;12.676;2022-11-20T14:00:17;11.90;99.90
37086;DHT22;23001;45.952;12.676;2022-11-20T14:02:44;11.90;99.90
37086;DHT22;23001;45.952;12.676;2022-11-20T14:05:22;11.90;99.90
37086;DHT22;23001;45.952;12.676;2022-11-20T14:07:53;11.90;99.90
37086;DHT22;23001;45.952;12.676;2022-11-20T14:13:15;11.90;99.90
37086;DHT22;23001;45.952;12.676;2022-11-20T14:15:41;11.90;99.90
37086;DHT22;23001;45.952;12.676;2022-11-20T14:18:21;11.80;99.90
37086;DHT22;23001;45.952;12.676;2022-11-20T14:20:50;11.70;99.90
37086;DHT22;23001;45.952;12.676;2022-11-20T14:23:27;11.70;99.90
37086;DHT22;23001;45.952;12.676;2022-11-20T14:25:56;11.70;99.90
37086;DHT22;23001;45.952;12.676;2022-11-20T14:28:27;11.70;99.90
37086;DHT22;23001;45.952;12.676;2022-11-20T14:30:54;11.70;99.90
37086;DHT22;23001;45.952;12.676;2022-11-20T14:33:21;11.60;99.90
37086;DHT22;23001;45.952;12.676;2022-11-20T14:35:54;11.60;99.90
37086;DHT22;23001;45.952;12.676;2022-11-20T14:38:34;11.60;99.90
37086;DHT22;23001;45.952;12.676;2022-11-20T14:41:26;11.60;99.90
37086;DHT22;23001;45.952;12.676;2022-11-20T14:43:59;11.60;99.90
37086;DHT22;23001;45.952;12.676;2022-11-20T14:46:26;11.50;99.90
37086;DHT22;23001;45.952;12.676;2022-11-20T14:49:01;11.40;99.90
37086;DHT22;23001;45.952;12.676;2022-11-20T14:51:37;11.40;99.90
37086;DHT22;23001;45.952;12.676;2022-11-20T14:54:24;11.30;99.90
37086;DHT22;23001;45.952;12.676;2022-11-20T14:56:59;11.30;99.90
37086;DHT22;23001;45.952;12.676;2022-11-20T14:59:44;11.20;99.90
37086;DHT22;23001;45.952;12.676;2022-11-20T15:02:12;11.10;99.90
37086;DHT22;23001;45.952;12.676;2022-11-20T15:04:57;11.10;99.90
37086;DHT22;23001;45.952;12.676;2022-11-20T15:07:26;11.00;99.90
37086;DHT22;23001;45.952;12.676;2022-11-20T15:13:26;10.90;99.90
37086;DHT22;23001;45.952;12.676;2022-11-20T15:16:00;10.90;99.90
37086;DHT22;23001;45.952;12.676;2022-11-20T15:18:44;10.80;99.90
37086;DHT22;23001;45.952;12.676;2022-11-20T15:21:15;10.80;99.90
37086;DHT22;23001;45.952;12.676;2022-11-20T15:23:48;10.80;99.90
37086;DHT22;23001;45.952;12.676;2022-11-20T15:26:26;10.70;99.90
37086;DHT22;23001;45.952;12.676;2022-11-20T15:28:52;10.70;99.90
37086;DHT22;23001;45.952;12.676;2022-11-20T15:31:21;10.60;99.90
37086;DHT22;23001;45.952;12.676;2022-11-20T15:34:29;10.60;99.90
37086;DHT22;23001;45.952;12.676;2022-11-20T15:40:00;10.50;99.90
37086;DHT22;23001;45.952;12.676;2022-11-20T15:42:29;10.50;99.90
37086;DHT22;23001;45.952;12.676;2022-11-20T15:44:55;10.50;99.90
37086;DHT22;23001;45.952;12.676;2022-11-20T15:47:54;10.50;99.90
37086;DHT22;23001;45.952;12.676;2022-11-20T15:50:20;10.40;99.90
37086;DHT22;23001;45.952;12.676;2022-11-20T15:52:50;10.40;99.90
37086;DHT22;23001;45.952;12.676;2022-11-20T15:55:16;10.40;99.90
37086;DHT22;23001;45.952;12.676;2022-11-20T15:57:42;10.50;99.90
37086;DHT22;23001;45.952;12.676;2022-11-20T16:00:08;10.50;99.90
37086;DHT22;23001;45.952;12.676;2022-11-20T16:02:34;10.50;99.90
37086;DHT22;23001;45.952;12.676;2022-11-20T16:05:00;10.50;99.90
37086;DHT22;23001;45.952;12.676;2022-11-20T16:07:26;10.50;99.90
37086;DHT22;23001;45.952;12.676;2022-11-20T16:12:47;10.50;99.90
37086;DHT22;23001;45.952;12.676;2022-11-20T16:15:31;10.50;99.90
37086;DHT22;23001;45.952;12.676;2022-11-20T16:25:02;10.50;99.90
37086;DHT22;23001;45.952;12.676;2022-11-20T16:36:59;10.30;99.90
37086;DHT22;23001;45.952;12.676;2022-11-20T16:39:28;10.30;99.90
37086;DHT22;23001;45.952;12.676;2022-11-20T16:44:39;10.30;99.90
37086;DHT22;23001;45.952;12.676;2022-11-20T16:47:08;10.20;99.90
37086;DHT22;23001;45.952;12.676;2022-11-20T16:49:49;10.10;99.90
37086;DHT22;23001;45.952;12.676;2022-11-20T16:52:17;10.10;99.90
37086;DHT22;23001;45.952;12.676;2022-11-20T16:54:43;10.10;99.90
37086;DHT22;23001;45.952;12.676;2022-11-20T17:00:15;10.10;99.90
37086;DHT22;23001;45.952;12.676;2022-11-20T17:02:44;10.10;99.90
37086;DHT22;23001;45.952;12.676;2022-11-20T17:05:09;10.10;99.90
37086;DHT22;23001;45.952;12.676;2022-11-20T17:07:38;10.00;99.90
37086;DHT22;23001;45.952;12.676;2022-11-20T17:10:04;10.00;99.90
37086;DHT22;23001;45.952;12.676;2022-11-20T17:12:30;10.00;99.90
37086;DHT22;23001;45.952;12.676;2022-11-20T17:14:56;10.00;99.90
37086;DHT22;23001;45.952;12.676;2022-11-20T17:17:21;10.00;99.90
37086;DHT22;23001;45.952;12.676;2022-11-20T17:19:47;9.90;99.90
37086;DHT22;23001;45.952;12.676;2022-11-20T17:22:46;9.80;99.90
37086;DHT22;23001;45.952;12.676;2022-11-20T17:25:20;9.80;99.90
37086;DHT22;23001;45.952;12.676;2022-11-20T17:27:49;9.70;99.90
37086;DHT22;23001;45.952;12.676;2022-11-20T17:30:24;9.80;99.90
37086;DHT22;23001;45.952;12.676;2022-11-20T17:32:59;9.70;99.90
37086;DHT22;23001;45.952;12.676;2022-11-20T17:35:33;9.70;99.90
37086;DHT22;23001;45.952;12.676;2022-11-20T17:38:00;9.70;99.90
37086;DHT22;23001;45.952;12.676;2022-11-20T17:40:26;9.70;99.90
37086;DHT22;23001;45.952;12.676;2022-11-20T17:43:05;9.60;99.90
37086;DHT22;23001;45.952;12.676;2022-11-20T17:45:36;9.50;99.90
37086;DHT22;23001;45.952;12.676;2022-11-20T17:48:05;9.50;99.90
37086;DHT22;23001;45.952;12.676;2022-11-20T17:50:30;9.50;99.90
37086;DHT22;23001;45.952;12.676;2022-11-20T17:52:56;9.50;99.90
37086;DHT22;23001;45.952;12.676;2022-11-20T17:55:31;9.50;99.90
37086;DHT22;23001;45.952;12.676;2022-11-20T17:58:35;9.50;99.90
37086;DHT22;23001;45.952;12.676;2022-11-20T18:01:05;9.50;99.90
37086;DHT22;23001;45.952;12.676;2022-11-20T18:03:31;9.50;99.90
37086;DHT22;23001;45.952;12.676;2022-11-20T18:05:57;9.60;99.90
37086;DHT22;23001;45.952;12.676;2022-11-20T18:08:28;9.60;99.90
37086;DHT22;23001;45.952;12.676;2022-11-20T18:10:54;9.50;99.90
37086;DHT22;23001;45.952;12.676;2022-11-20T18:13:20;9.50;99.90
37086;DHT22;23001;45.952;12.676;2022-11-20T18:16:14;9.50;99.90
37086;DHT22;23001;45.952;12.676;2022-11-20T18:18:57;9.50;99.90
37086;DHT22;23001;45.952;12.676;2022-11-20T18:21:30;9.50;99.90
37086;DHT22;23001;45.952;12.676;2022-11-20T18:24:02;9.40;99.90
37086;DHT22;23001;45.952;12.676;2022-11-20T18:26:31;9.40;99.90
37086;DHT22;23001;45.952;12.676;2022-11-20T18:28:59;9.40;99.90
37086;DHT22;23001;45.952;12.676;2022-11-20T18:31:31;9.40;99.90
37086;DHT22;23001;45.952;12.676;2022-11-20T18:34:05;9.40;99.90
37086;DHT22;23001;45.952;12.676;2022-11-20T18:36:32;9.30;99.90
37086;DHT22;23001;45.952;12.676;2022-11-20T18:39:01;9.30;99.90
37086;DHT22;23001;45.952;12.676;2022-11-20T18:41:29;9.30;99.90
37086;DHT22;23001;45.952;12.676;2022-11-20T18:44:23;9.20;99.90
37086;DHT22;23001;45.952;12.676;2022-11-20T18:47:09;9.30;99.90
37086;DHT22;23001;45.952;12.676;2022-11-20T18:49:35;9.30;99.90
37086;DHT22;23001;45.952;12.676;2022-11-20T18:52:01;9.20;99.90
37086;DHT22;23001;45.952;12.676;2022-11-20T18:54:27;9.20;99.90
37086;DHT22;23001;45.952;12.676;2022-11-20T18:56:53;9.10;99.90
37086;DHT22;23001;45.952;12.676;2022-11-20T18:59:19;9.10;99.90
37086;DHT22;23001;45.952;12.676;2022-11-20T19:01:46;9.20;99.90
37086;DHT22;23001;45.952;12.676;2022-11-20T19:04:14;9.20;99.90
37086;DHT22;23001;45.952;12.676;2022-11-20T19:06:41;9.20;99.90
37086;DHT22;23001;45.952;12.676;2022-11-20T19:09:08;9.20;99.90